createdAt,value
2019-01-12T00:00:16.238Z,30.91
2019-01-12T00:01:16.214Z,30.82
2019-01-12T00:02:16.202Z,30.63
2019-01-12T00:03:16.181Z,30.73
2019-01-12T00:04:15.915Z,30.73
2019-01-12T00:05:16.145Z,30.16
2019-01-12T00:06:16.123Z,30.07
2019-01-12T00:07:15.862Z,30.16
2019-01-12T00:08:16.083Z,29.88
2019-01-12T00:09:16.063Z,30.16
2019-01-12T00:10:16.047Z,30.26
2019-01-12T00:11:16.030Z,30.35
2019-01-12T00:12:15.763Z,30.07
2019-01-12T00:13:15.989Z,30.44
2019-01-12T00:14:16.013Z,30.54
2019-01-12T00:15:15.953Z,30.16
2019-01-12T00:16:15.953Z,30.26
2019-01-12T00:17:15.915Z,30.16
2019-01-12T00:18:15.904Z,30.26
2019-01-12T00:19:15.877Z,30.16
2019-01-12T00:20:15.859Z,30.35
2019-01-12T00:21:15.843Z,30.16
2019-01-12T00:22:15.818Z,30.07
2019-01-12T00:23:15.799Z,30.07
2019-01-12T00:24:15.783Z,29.88
2019-01-12T00:25:15.514Z,30.07
2019-01-12T00:26:15.744Z,29.6
2019-01-12T00:27:15.726Z,29.6
2019-01-12T00:28:15.704Z,29.6
2019-01-12T00:29:15.437Z,29.88
2019-01-12T00:30:15.671Z,30.26
2019-01-12T00:31:15.652Z,30.07
2019-01-12T00:32:15.631Z,30.73
2019-01-12T00:33:15.615Z,30.63
2019-01-12T00:34:15.592Z,31.01
2019-01-12T00:35:15.572Z,30.91
2019-01-12T00:36:15.559Z,31.1
2019-01-12T00:37:15.537Z,31.1
2019-01-12T00:38:15.518Z,31.01
2019-01-12T00:39:15.495Z,31.1
2019-01-12T00:40:15.483Z,31.39
2019-01-12T00:41:16.238Z,31.67
2019-01-12T00:42:15.439Z,31.77
2019-01-12T00:43:15.423Z,31.96
2019-01-12T00:44:15.407Z,31.48
2019-01-12T00:45:15.383Z,32.05
2019-01-12T00:46:15.367Z,31.96
2019-01-12T00:47:15.345Z,31.86
2019-01-12T00:48:15.328Z,32.24
2019-01-12T00:49:15.307Z,32.53
2019-01-12T00:50:15.043Z,32.71
2019-01-12T00:51:15.271Z,32.53
2019-01-12T00:52:15.253Z,32.71
2019-01-12T00:53:15.235Z,32.71
2019-01-12T00:54:15.217Z,32.81
2019-01-12T00:55:15.199Z,33.09
2019-01-12T00:56:15.181Z,33.18
2019-01-12T00:57:15.159Z,33.56
2019-01-12T00:58:15.141Z,33.75
2019-01-12T00:59:15.176Z,34.13
2019-01-12T01:00:15.100Z,34.04
2019-01-12T01:01:15.081Z,34.32
2019-01-12T01:02:15.062Z,34.04
2019-01-12T01:03:15.044Z,34.04
2019-01-12T01:04:15.026Z,34.23
2019-01-12T01:05:15.013Z,34.13
2019-01-12T01:06:14.990Z,34.32
2019-01-12T01:07:14.971Z,34.42
2019-01-12T01:08:14.949Z,34.23
2019-01-12T01:09:14.934Z,34.8
2019-01-12T01:10:14.914Z,35.08
2019-01-12T01:11:14.893Z,35.27
2019-01-12T01:12:14.877Z,35.36
2019-01-12T01:13:14.858Z,35.74
2019-01-12T01:14:14.841Z,35.74
2019-01-12T01:15:14.569Z,35.74
2019-01-12T01:16:14.805Z,35.64
2019-01-12T01:17:14.780Z,35.64
2019-01-12T01:18:14.765Z,35.46
2019-01-12T01:19:14.753Z,35.74
2019-01-12T01:20:14.726Z,35.83
2019-01-12T01:21:14.707Z,36.4
2019-01-12T01:22:14.439Z,36.02
2019-01-12T01:23:14.670Z,36.21
2019-01-12T01:24:14.651Z,36.49
2019-01-12T01:25:14.634Z,36.49
2019-01-12T01:26:14.618Z,36.49
2019-01-12T01:27:14.594Z,36.59
2019-01-12T01:28:14.578Z,36.59
2019-01-12T01:29:14.555Z,36.68
2019-01-12T01:30:14.538Z,36.49
2019-01-12T01:31:14.520Z,36.68
2019-01-12T01:32:14.502Z,36.4
2019-01-12T01:33:14.490Z,36.21
2019-01-12T01:34:14.464Z,36.31
2019-01-12T01:35:14.447Z,36.31
2019-01-12T01:36:14.426Z,36.59
2019-01-12T01:37:14.407Z,36.68
2019-01-12T01:38:14.394Z,36.97
2019-01-12T01:39:14.370Z,37.06
2019-01-12T01:40:14.353Z,37.16
2019-01-12T01:41:14.333Z,37.63
2019-01-12T01:42:14.316Z,37.44
2019-01-12T01:43:14.298Z,37.82
2019-01-12T01:44:14.027Z,38.01
2019-01-12T01:45:14.008Z,38.12
2019-01-12T01:46:14.241Z,38.31
2019-01-12T01:47:14.220Z,38.39
2019-01-12T01:48:14.200Z,38.57
2019-01-12T01:49:13.934Z,38.57
2019-01-12T01:50:14.166Z,38.98
2019-01-12T01:51:14.147Z,38.95
2019-01-12T01:52:14.126Z,39.24
2019-01-12T01:53:14.109Z,39.05
2019-01-12T01:54:13.844Z,39.07
2019-01-12T01:55:14.071Z,39.14
2019-01-12T01:56:14.058Z,39.43
2019-01-12T01:57:14.033Z,39.43
2019-01-12T01:58:13.768Z,39.24
2019-01-12T01:59:13.998Z,39.26
2019-01-12T02:00:13.978Z,39.14
2019-01-12T02:01:13.959Z,38.88
2019-01-12T02:02:13.938Z,38.88
2019-01-12T02:03:13.921Z,38.76
2019-01-12T02:04:13.905Z,39.17
2019-01-12T02:05:13.885Z,39.07
2019-01-12T02:06:13.873Z,38.86
2019-01-12T02:07:13.848Z,38.67
2019-01-12T02:08:13.834Z,38.79
2019-01-12T02:09:13.816Z,38.57
2019-01-12T02:10:13.791Z,38.76
2019-01-12T02:11:13.776Z,38.67
2019-01-12T02:12:13.752Z,38.6
2019-01-12T02:13:13.733Z,38.69
2019-01-12T02:14:13.467Z,38.57
2019-01-12T02:15:13.699Z,38.69
2019-01-12T02:16:13.432Z,38.6
2019-01-12T02:17:13.661Z,38.6
2019-01-12T02:18:13.639Z,38.79
2019-01-12T02:19:13.621Z,38.79
2019-01-12T02:20:13.359Z,38.98
2019-01-12T02:21:13.586Z,39.14
2019-01-12T02:22:13.567Z,39.36
2019-01-12T02:23:13.299Z,39.73
2019-01-12T02:24:13.530Z,39.83
2019-01-12T02:25:13.510Z,39.92
2019-01-12T02:26:13.497Z,40.19
2019-01-12T02:27:13.474Z,40.49
2019-01-12T02:28:13.455Z,40.2
2019-01-12T02:29:13.189Z,40.49
2019-01-12T02:30:13.422Z,41.15
2019-01-12T02:31:13.433Z,40.77
2019-01-12T02:32:13.383Z,40.77
2019-01-12T02:33:13.118Z,40.96
2019-01-12T02:34:13.347Z,41.25
2019-01-12T02:35:13.328Z,41.15
2019-01-12T02:36:13.058Z,41.44
2019-01-12T02:37:13.290Z,41.34
2019-01-12T02:38:13.275Z,41.63
2019-01-12T02:39:13.255Z,41.32
2019-01-12T02:40:13.246Z,41.63
2019-01-12T02:41:13.218Z,41.72
2019-01-12T02:42:13.198Z,41.72
2019-01-12T02:43:13.191Z,42
2019-01-12T02:44:13.310Z,41.6
2019-01-12T02:45:13.151Z,41.79
2019-01-12T02:46:13.163Z,41.82
2019-01-12T02:47:13.108Z,42
2019-01-12T02:48:13.084Z,42.29
2019-01-12T02:49:13.065Z,42.29
2019-01-12T02:50:13.071Z,41.53
2019-01-12T02:51:13.032Z,41.41
2019-01-12T02:52:13.011Z,41.53
2019-01-12T02:53:12.994Z,40.87
2019-01-12T02:54:12.972Z,40.96
2019-01-12T02:55:12.980Z,41.13
2019-01-12T02:56:12.939Z,41.15
2019-01-12T02:57:12.918Z,40.87
2019-01-12T02:58:12.899Z,40.96
2019-01-12T02:59:12.879Z,40.87
2019-01-12T03:00:12.865Z,40.96
2019-01-12T03:01:12.841Z,40.96
2019-01-12T03:02:12.830Z,40.49
2019-01-12T03:03:12.812Z,40.77
2019-01-12T03:04:12.542Z,40.58
2019-01-12T03:05:12.773Z,40.87
2019-01-12T03:06:12.752Z,41.06
2019-01-12T03:07:12.745Z,40.49
2019-01-12T03:08:12.465Z,40.58
2019-01-12T03:09:12.693Z,40.49
2019-01-12T03:10:12.677Z,40.58
2019-01-12T03:11:12.664Z,40.68
2019-01-12T03:12:12.644Z,40.58
2019-01-12T03:13:12.623Z,40.77
2019-01-12T03:14:12.612Z,41.34
2019-01-12T03:15:12.346Z,41.72
2019-01-12T03:16:12.574Z,42.19
2019-01-12T03:17:12.552Z,42.29
2019-01-12T03:18:12.530Z,42.1
2019-01-12T03:19:12.518Z,42.29
2019-01-12T03:20:12.493Z,42.57
2019-01-12T03:21:12.476Z,42.38
2019-01-12T03:22:12.456Z,42.57
2019-01-12T03:23:12.441Z,42.57
2019-01-12T03:24:12.419Z,42.85
2019-01-12T03:25:20.225Z,42.95
2019-01-12T03:26:12.386Z,43.04
2019-01-12T03:27:12.361Z,42.95
2019-01-12T03:28:12.347Z,43.23
2019-01-12T03:29:12.325Z,43.42
2019-01-12T03:30:12.318Z,43.14
2019-01-12T03:31:12.309Z,43.33
2019-01-12T03:32:12.026Z,43.42
2019-01-12T03:33:12.266Z,43.8
2019-01-12T03:34:12.240Z,43.99
2019-01-12T03:35:12.226Z,44.18
2019-01-12T03:36:12.194Z,44.27
2019-01-12T03:37:12.176Z,44.09
2019-01-12T03:38:12.161Z,44.18
2019-01-12T03:39:11.894Z,44.37
2019-01-12T03:40:12.122Z,44.37
2019-01-12T03:41:12.107Z,44.46
2019-01-12T03:42:12.083Z,44.37
2019-01-12T03:43:12.079Z,44.37
2019-01-12T03:44:12.059Z,44.46
2019-01-12T03:45:11.780Z,44.37
2019-01-12T03:46:12.010Z,44.65
2019-01-12T03:47:11.989Z,44.37
2019-01-12T03:48:11.976Z,44.37
2019-01-12T03:49:11.952Z,44.18
2019-01-12T03:50:11.936Z,44.09
2019-01-12T03:51:11.916Z,44.18
2019-01-12T03:52:11.897Z,44.46
2019-01-12T03:53:11.879Z,44.37
2019-01-12T03:54:11.860Z,44.27
2019-01-12T03:55:11.852Z,44.56
2019-01-12T03:56:11.823Z,44.27
2019-01-12T03:57:11.807Z,44.65
2019-01-12T03:58:11.793Z,44.65
2019-01-12T03:59:11.781Z,44.65
2019-01-12T04:00:11.748Z,44.84
2019-01-12T04:01:11.729Z,45.12
2019-01-12T04:02:11.714Z,45.12
2019-01-12T04:03:11.694Z,45.41
2019-01-12T04:04:11.674Z,45.03
2019-01-12T04:05:11.659Z,45.22
2019-01-12T04:06:11.642Z,45.12
2019-01-12T04:07:11.669Z,45.31
2019-01-12T04:08:11.610Z,45.22
2019-01-12T04:09:11.583Z,45.22
2019-01-12T04:10:11.563Z,45.12
2019-01-12T04:11:11.547Z,44.74
2019-01-12T04:12:11.526Z,44.93
2019-01-12T04:13:11.509Z,44.74
2019-01-12T04:14:11.490Z,44.74
2019-01-12T04:15:11.473Z,44.37
2019-01-12T04:16:11.452Z,44.56
2019-01-12T04:17:11.187Z,44.46
2019-01-12T04:18:11.421Z,44.18
2019-01-12T04:19:11.402Z,44.37
2019-01-12T04:20:11.377Z,43.61
2019-01-12T04:21:11.359Z,43.71
2019-01-12T04:22:11.341Z,43.9
2019-01-12T04:23:11.076Z,44.46
2019-01-12T04:24:11.305Z,44.37
2019-01-12T04:25:11.039Z,44.18
2019-01-12T04:26:11.267Z,44.09
2019-01-12T04:27:11.253Z,43.8
2019-01-12T04:28:11.229Z,43.99
2019-01-12T04:29:10.964Z,43.99
2019-01-12T04:30:11.198Z,43.9
2019-01-12T04:31:11.188Z,43.71
2019-01-12T04:32:11.157Z,43.8
2019-01-12T04:33:11.138Z,43.61
2019-01-12T04:34:10.869Z,43.52
2019-01-12T04:35:11.101Z,43.61
2019-01-12T04:36:11.082Z,43.21
2019-01-12T04:37:11.063Z,43.23
2019-01-12T04:38:10.801Z,42.85
2019-01-12T04:39:11.035Z,42.66
2019-01-12T04:40:11.012Z,42.55
2019-01-12T04:41:10.988Z,42.29
2019-01-12T04:42:10.977Z,42.19
2019-01-12T04:43:10.951Z,41.82
2019-01-12T04:44:10.687Z,41.25
2019-01-12T04:45:10.916Z,41.06
2019-01-12T04:46:10.946Z,40.87
2019-01-12T04:47:10.878Z,40.77
2019-01-12T04:48:10.859Z,40.87
2019-01-12T04:49:10.843Z,40.49
2019-01-12T04:50:10.821Z,40.58
2019-01-12T04:51:10.804Z,40.3
2019-01-12T04:52:10.792Z,40.11
2019-01-12T04:53:10.780Z,40.3
2019-01-12T04:54:10.768Z,39.92
2019-01-12T04:55:10.738Z,40.49
2019-01-12T04:56:10.727Z,40.58
2019-01-12T04:57:10.694Z,40.39
2019-01-12T04:58:10.676Z,40.2
2019-01-12T04:59:10.657Z,40.3
2019-01-12T05:00:10.653Z,40.49
2019-01-12T05:01:10.621Z,40.2
2019-01-12T05:02:10.603Z,40.2
2019-01-12T05:03:10.594Z,40.11
2019-01-12T05:04:10.567Z,40.2
2019-01-12T05:05:10.546Z,39.92
2019-01-12T05:06:10.532Z,39.83
2019-01-12T05:07:10.511Z,39.83
2019-01-12T05:08:10.500Z,39.73
2019-01-12T05:09:10.478Z,39.73
2019-01-12T05:10:10.465Z,39.45
2019-01-12T05:11:10.433Z,39.64
2019-01-12T05:12:10.416Z,39.54
2019-01-12T05:13:10.406Z,39.73
2019-01-12T05:14:10.381Z,40.2
2019-01-12T05:15:10.370Z,40.11
2019-01-12T05:16:10.354Z,40.2
2019-01-12T05:17:10.341Z,40.3
2019-01-12T05:18:10.309Z,40.58
2019-01-12T05:19:10.297Z,40.58
2019-01-12T05:20:10.272Z,40.39
2019-01-12T05:21:10.267Z,40.49
2019-01-12T05:22:10.231Z,39.92
2019-01-12T05:23:10.215Z,39.92
2019-01-12T05:24:10.196Z,39.92
2019-01-12T05:25:10.177Z,39.54
2019-01-12T05:26:10.158Z,39.64
2019-01-12T05:27:10.138Z,39.17
2019-01-12T05:28:09.873Z,39.07
2019-01-12T05:29:10.101Z,38.79
2019-01-12T05:30:10.084Z,38.6
2019-01-12T05:31:10.064Z,38.03
2019-01-12T05:32:10.049Z,38.03
2019-01-12T05:33:10.032Z,38.03
2019-01-12T05:34:09.765Z,37.84
2019-01-12T05:35:09.993Z,37.74
2019-01-12T05:36:09.973Z,37.55
2019-01-12T05:37:09.707Z,37.74
2019-01-12T05:38:09.938Z,37.74
2019-01-12T05:39:09.917Z,37.93
2019-01-12T05:40:09.898Z,37.84
2019-01-12T05:41:09.882Z,37.65
2019-01-12T05:42:09.863Z,37.74
2019-01-12T05:43:09.843Z,37.46
2019-01-12T05:44:09.826Z,37.18
2019-01-12T05:45:09.811Z,37.08
2019-01-12T05:46:09.787Z,36.71
2019-01-12T05:47:09.521Z,36.42
2019-01-12T05:48:09.753Z,36.33
2019-01-12T05:49:09.486Z,35.85
2019-01-12T05:50:09.717Z,35.85
2019-01-12T05:51:09.700Z,35.47
2019-01-12T05:52:09.685Z,35.1
2019-01-12T05:53:09.664Z,35
2019-01-12T05:54:09.640Z,34.91
2019-01-12T05:55:09.625Z,34.44
2019-01-12T05:56:09.631Z,34.34
2019-01-12T05:57:09.588Z,34.06
2019-01-12T05:58:09.569Z,33.87
2019-01-12T05:59:09.549Z,33.68
2019-01-12T06:00:09.530Z,33.3
2019-01-12T06:01:09.512Z,32.73
2019-01-12T06:02:09.499Z,32.54
2019-01-12T06:03:09.476Z,32.07
2019-01-12T06:04:09.457Z,31.69
2019-01-12T06:05:09.440Z,31.22
2019-01-12T06:06:09.420Z,31.12
2019-01-12T06:07:09.402Z,31.03
2019-01-12T06:08:09.389Z,30.74
2019-01-12T06:09:09.367Z,30.08
2019-01-12T06:10:09.347Z,30.08
2019-01-12T06:11:09.329Z,29.9
2019-01-12T06:12:09.316Z,29.42
2019-01-12T06:13:09.290Z,29.04
2019-01-12T06:14:09.272Z,28.85
2019-01-12T06:15:09.254Z,28.38
2019-01-12T06:16:09.234Z,28.38
2019-01-12T06:17:09.220Z,28.19
2019-01-12T06:18:09.197Z,27.53
2019-01-12T06:19:09.184Z,27.53
2019-01-12T06:20:09.162Z,27.25
2019-01-12T06:21:09.144Z,27.06
2019-01-12T06:22:09.169Z,26.68
2019-01-12T06:23:09.106Z,26.01
2019-01-12T06:24:09.090Z,26.3
2019-01-12T06:25:09.083Z,26.3
2019-01-12T06:26:09.052Z,26.01
2019-01-12T06:27:09.035Z,25.82
2019-01-12T06:28:09.019Z,25.73
2019-01-12T06:29:09.000Z,25.92
2019-01-12T06:30:08.982Z,25.26
2019-01-12T06:31:08.958Z,24.79
2019-01-12T06:32:08.944Z,24.79
2019-01-12T06:33:08.923Z,24.03
2019-01-12T06:34:08.909Z,23.65
2019-01-12T06:35:08.889Z,23.27
2019-01-12T06:36:08.869Z,23.18
2019-01-12T06:37:08.853Z,22.71
2019-01-12T06:38:08.582Z,22.33
2019-01-12T06:39:08.814Z,21.66
2019-01-12T06:40:08.548Z,21.19
2019-01-12T06:41:08.777Z,20.81
2019-01-12T06:42:08.759Z,20.81
2019-01-12T06:43:08.744Z,20.72
2019-01-12T06:44:08.722Z,20.53
2019-01-12T06:45:08.702Z,20.72
2019-01-12T06:46:08.446Z,20.34
2019-01-12T06:47:08.669Z,20.72
2019-01-12T06:48:08.401Z,20.81
2019-01-12T06:49:08.629Z,20.62
2019-01-12T06:50:08.621Z,21.09
2019-01-12T06:51:08.591Z,20.62
2019-01-12T06:52:08.576Z,21.47
2019-01-12T06:53:08.565Z,21.28
2019-01-12T06:54:08.541Z,21.66
2019-01-12T06:55:08.519Z,21.57
2019-01-12T06:56:13.296Z,21.57
2019-01-12T06:57:08.485Z,21.76
2019-01-12T06:58:08.466Z,21.95
2019-01-12T06:59:08.452Z,21.85
2019-01-12T07:00:08.427Z,22.33
2019-01-12T07:01:08.411Z,22.71
2019-01-12T07:02:08.392Z,22.33
2019-01-12T07:03:08.372Z,22.42
2019-01-12T07:04:08.355Z,22.33
2019-01-12T07:05:08.336Z,22.33
2019-01-12T07:06:08.319Z,22.71
2019-01-12T07:07:08.299Z,22.42
2019-01-12T07:08:08.041Z,22.23
2019-01-12T07:09:08.263Z,22.42
2019-01-12T07:10:08.246Z,22.33
2019-01-12T07:11:08.226Z,22.33
2019-01-12T07:12:08.213Z,22.52
2019-01-12T07:13:08.190Z,22.5
2019-01-12T07:14:08.169Z,22.71
2019-01-12T07:15:08.158Z,22.52
2019-01-12T07:16:08.152Z,22.61
2019-01-12T07:17:08.116Z,22.8
2019-01-12T07:18:11.426Z,22.8
2019-01-12T07:19:08.078Z,22.8
2019-01-12T07:20:08.059Z,22.42
2019-01-12T07:21:08.044Z,22.42
2019-01-12T07:22:07.778Z,22.42
2019-01-12T07:23:08.006Z,22.8
2019-01-12T07:24:07.990Z,22.61
2019-01-12T07:25:07.967Z,23.18
2019-01-12T07:26:07.953Z,22.99
2019-01-12T07:27:07.934Z,22.99
2019-01-12T07:28:07.910Z,23.18
2019-01-12T07:29:07.897Z,23.08
2019-01-12T07:30:07.879Z,23.55
2019-01-12T07:31:07.859Z,23.46
2019-01-12T07:32:07.840Z,23.84
2019-01-12T07:33:07.821Z,24.12
2019-01-12T07:34:07.559Z,24.03
2019-01-12T07:35:07.793Z,23.84
2019-01-12T07:36:07.764Z,24.03
2019-01-12T07:37:07.766Z,23.74
2019-01-12T07:38:07.728Z,23.93
2019-01-12T07:39:07.469Z,23.36
2019-01-12T07:40:07.696Z,22.99
2019-01-12T07:41:07.430Z,22.99
2019-01-12T07:42:07.660Z,23.27
2019-01-12T07:43:07.388Z,23.18
2019-01-12T07:44:07.618Z,22.99
2019-01-12T07:45:07.602Z,23.18
2019-01-12T07:46:07.583Z,23.27
2019-01-12T07:47:07.564Z,23.46
2019-01-12T07:48:07.300Z,22.8
2019-01-12T07:49:07.528Z,23.27
2019-01-12T07:50:07.516Z,22.99
2019-01-12T07:51:07.538Z,23.65
2019-01-12T07:52:07.483Z,23.74
2019-01-12T07:53:07.454Z,23.74
2019-01-12T07:54:07.436Z,23.65
2019-01-12T07:55:07.421Z,23.65
2019-01-12T07:56:07.153Z,24.03
2019-01-12T07:57:07.378Z,24.03
2019-01-12T07:58:07.371Z,24.22
2019-01-12T07:59:07.349Z,24.22
2019-01-12T08:00:07.325Z,25.16
2019-01-12T08:01:07.310Z,24.79
2019-01-12T08:02:07.439Z,24.69
2019-01-12T08:03:07.269Z,24.98
2019-01-12T08:04:07.251Z,25.26
2019-01-12T08:05:07.232Z,25.16
2019-01-12T08:06:07.215Z,25.63
2019-01-12T08:07:07.198Z,25.54
2019-01-12T08:08:07.178Z,25.92
2019-01-12T08:09:07.159Z,25.73
2019-01-12T08:10:07.145Z,26.2
2019-01-12T08:11:07.122Z,26.11
2019-01-12T08:12:07.109Z,25.92
2019-01-12T08:13:07.086Z,26.39
2019-01-12T08:14:07.078Z,27.25
2019-01-12T08:15:07.052Z,27.34
2019-01-12T08:16:07.033Z,27.34
2019-01-12T08:17:07.016Z,27.53
2019-01-12T08:18:06.996Z,28.19
2019-01-12T08:19:06.982Z,28.76
2019-01-12T08:20:06.963Z,29.04
2019-01-12T08:21:06.954Z,29.8
2019-01-12T08:22:06.923Z,30.08
2019-01-12T08:23:06.904Z,30.08
2019-01-12T08:24:06.892Z,30.08
2019-01-12T08:25:06.619Z,30.27
2019-01-12T08:26:06.851Z,30.18
2019-01-12T08:27:06.833Z,30.74
2019-01-12T08:28:06.812Z,31.12
2019-01-12T08:29:06.795Z,31.98
2019-01-12T08:30:06.778Z,32.92
2019-01-12T08:31:06.760Z,34.44
2019-01-12T08:32:06.742Z,35.76
2019-01-12T08:33:06.724Z,35.57
2019-01-12T08:34:06.708Z,36.52
2019-01-12T08:35:06.691Z,36.99
2019-01-12T08:36:06.678Z,38.81
2019-01-12T08:37:06.649Z,39.92
2019-01-12T08:38:06.634Z,40.39
2019-01-12T08:39:06.615Z,40.77
2019-01-12T08:40:06.596Z,42.57
2019-01-12T08:41:06.578Z,43.52
2019-01-12T08:42:06.563Z,44.27
2019-01-12T08:43:06.543Z,44.67
2019-01-12T08:44:06.277Z,44.96
2019-01-12T08:45:06.509Z,46
2019-01-12T08:46:06.488Z,47.61
2019-01-12T08:47:06.474Z,48.18
2019-01-12T08:48:06.453Z,50.45
2019-01-12T08:49:06.439Z,52.72
2019-01-12T08:50:06.417Z,53.09
2019-01-12T08:51:06.404Z,55.75
2019-01-12T08:52:06.134Z,55.65
2019-01-12T08:53:06.363Z,57.26
2019-01-12T08:54:06.348Z,58.02
2019-01-12T08:55:06.080Z,58.59
2019-01-12T08:56:06.312Z,59.53
2019-01-12T08:57:06.293Z,59.44
2019-01-12T08:58:06.274Z,59.53
2019-01-12T08:59:06.257Z,60.77
2019-01-12T09:00:05.998Z,61.52
2019-01-12T09:01:06.223Z,61.52
2019-01-12T09:02:05.957Z,61.9
2019-01-12T09:03:06.186Z,62.28
2019-01-12T09:04:06.169Z,62.37
2019-01-12T09:05:06.155Z,65.78
2019-01-12T09:06:06.135Z,66.63
2019-01-12T09:07:05.877Z,69.57
2019-01-12T09:08:06.103Z,69.38
2019-01-12T09:09:06.135Z,69.28
2019-01-12T09:10:05.820Z,69.57
2019-01-12T09:11:06.050Z,70.61
2019-01-12T09:12:06.032Z,71.93
2019-01-12T09:13:06.012Z,71.84
2019-01-12T09:14:05.998Z,72.12
2019-01-12T09:15:05.976Z,73.35
2019-01-12T09:16:05.969Z,75.34
2019-01-12T09:17:05.941Z,75.53
2019-01-12T09:18:05.926Z,74.02
2019-01-12T09:19:05.926Z,75.72
2019-01-12T09:20:05.890Z,75.81
2019-01-12T09:21:05.882Z,75.62
2019-01-12T09:22:05.858Z,75.34
2019-01-12T09:23:05.840Z,76.95
2019-01-12T09:24:05.820Z,82.1
2019-01-12T09:25:05.805Z,82.76
2019-01-12T09:26:05.790Z,84.09
2019-01-12T09:27:05.775Z,85.85
2019-01-12T09:28:05.754Z,90.06
2019-01-12T09:29:05.740Z,91.48
2019-01-12T09:30:05.720Z,92.24
2019-01-12T09:31:05.706Z,92.9
2019-01-12T09:32:05.686Z,91.57
2019-01-12T09:33:05.674Z,91.76
2019-01-12T09:34:05.653Z,90.63
2019-01-12T09:35:05.636Z,91.76
2019-01-12T09:36:05.623Z,96.5
2019-01-12T09:37:05.604Z,97.16
2019-01-12T09:38:05.735Z,97.25
2019-01-12T09:39:05.566Z,97.63
2019-01-12T09:40:05.547Z,97.25
2019-01-12T09:41:05.537Z,97.35
2019-01-12T09:42:05.570Z,96.69
2019-01-12T09:43:05.498Z,98.39
2019-01-12T09:44:05.232Z,99.52
2019-01-12T09:45:05.477Z,99.71
2019-01-12T09:46:05.451Z,99.99
2019-01-12T09:47:05.432Z,99.99
2019-01-12T09:48:05.412Z,99.99
2019-01-12T09:49:05.397Z,99.99
2019-01-12T09:50:05.381Z,99.99
2019-01-12T09:51:05.368Z,99.99
2019-01-12T09:52:05.346Z,99.99
2019-01-12T09:53:05.331Z,99.24
2019-01-12T09:54:05.311Z,98.77
2019-01-12T09:55:05.301Z,99.99
2019-01-12T09:56:05.279Z,99.99
2019-01-12T09:57:05.269Z,99.62
2019-01-12T09:58:05.244Z,99.15
2019-01-12T09:59:05.232Z,98.3
2019-01-12T10:00:05.215Z,99.99
2019-01-12T10:01:05.193Z,99.99
2019-01-12T10:02:05.177Z,99.99
2019-01-12T10:03:05.162Z,99.99
2019-01-12T10:04:05.146Z,99.99
2019-01-12T10:05:05.130Z,99.99
2019-01-12T10:06:05.114Z,99.99
2019-01-12T10:07:05.100Z,99.99
2019-01-12T10:08:05.078Z,99.99
2019-01-12T10:09:04.814Z,99.99
2019-01-12T10:10:05.048Z,99.99
2019-01-12T10:11:05.029Z,99.99
2019-01-12T10:12:05.017Z,99.99
2019-01-12T10:13:04.994Z,99.99
2019-01-12T10:14:04.990Z,99.99
2019-01-12T10:15:04.966Z,99.99
2019-01-12T10:16:04.946Z,99.99
2019-01-12T10:17:04.929Z,99.99
2019-01-12T10:18:04.912Z,99.99
2019-01-12T10:19:04.895Z,99.99
2019-01-12T10:20:04.879Z,99.99
2019-01-12T10:21:04.862Z,99.99
2019-01-12T10:22:04.847Z,99.99
2019-01-12T10:23:04.830Z,99.99
2019-01-12T10:24:04.811Z,99.99
2019-01-12T10:25:04.797Z,99.99
2019-01-12T10:26:04.780Z,99.99
2019-01-12T10:27:04.763Z,99.99
2019-01-12T10:28:04.749Z,99.99
2019-01-12T10:29:04.734Z,99.99
2019-01-12T10:30:04.717Z,99.99
2019-01-12T10:31:04.700Z,99.99
2019-01-12T10:32:04.683Z,99.99
2019-01-12T10:33:04.666Z,99.99
2019-01-12T10:34:04.652Z,99.99
2019-01-12T10:35:04.634Z,99.99
2019-01-12T10:36:04.620Z,99.99
2019-01-12T10:37:04.602Z,99.99
2019-01-12T10:38:04.586Z,99.99
2019-01-12T10:39:04.571Z,99.99
2019-01-12T10:40:04.562Z,99.99
2019-01-12T10:41:04.537Z,99.99
2019-01-12T10:42:04.521Z,99.99
2019-01-12T10:43:04.505Z,99.99
2019-01-12T10:44:04.490Z,99.99
2019-01-12T10:45:04.690Z,99.99
2019-01-12T10:46:04.459Z,99.99
2019-01-12T10:47:04.442Z,99.99
2019-01-12T10:48:04.428Z,99.99
2019-01-12T10:49:04.410Z,99.99
2019-01-12T10:50:04.397Z,99.99
2019-01-12T10:51:04.379Z,99.99
2019-01-12T10:52:04.361Z,99.99
2019-01-12T10:53:04.346Z,99.99
2019-01-12T10:54:04.331Z,99.99
2019-01-12T10:55:04.317Z,99.99
2019-01-12T10:56:04.299Z,99.99
2019-01-12T10:57:08.045Z,99.99
2019-01-12T10:58:04.020Z,99.99
2019-01-12T10:59:04.254Z,99.99
2019-01-12T11:00:04.244Z,99.99
2019-01-12T11:01:04.221Z,99.99
2019-01-12T11:02:04.204Z,99.99
2019-01-12T11:03:04.190Z,99.99
2019-01-12T11:04:04.173Z,99.99
2019-01-12T11:05:04.158Z,99.99
2019-01-12T11:06:04.140Z,99.99
2019-01-12T11:07:04.149Z,99.99
2019-01-12T11:08:04.112Z,99.99
2019-01-12T11:09:04.092Z,99.99
2019-01-12T11:10:06.604Z,99.99
2019-01-12T11:11:04.061Z,99.99
2019-01-12T11:12:04.044Z,99.99
2019-01-12T11:13:04.028Z,99.99
2019-01-12T11:14:04.014Z,99.99
2019-01-12T11:15:03.749Z,99.99
2019-01-12T11:16:03.989Z,99.99
2019-01-12T11:17:03.965Z,99.99
2019-01-12T11:18:03.951Z,99.99
2019-01-12T11:19:03.933Z,99.99
2019-01-12T11:20:03.924Z,99.99
2019-01-12T11:21:03.902Z,99.99
2019-01-12T11:22:03.884Z,99.99
2019-01-12T11:23:03.870Z,99.99
2019-01-12T11:24:03.906Z,99.99
2019-01-12T11:25:03.839Z,99.99
2019-01-12T11:26:03.634Z,99.99
2019-01-12T11:27:03.812Z,99.99
2019-01-12T11:28:03.793Z,99.99
2019-01-12T11:29:03.772Z,99.99
2019-01-12T11:30:03.760Z,99.99
2019-01-12T11:31:03.741Z,99.99
2019-01-12T11:32:03.728Z,99.99
2019-01-12T11:33:03.709Z,99.99
2019-01-12T11:34:03.693Z,99.99
2019-01-12T11:35:03.681Z,99.99
2019-01-12T11:36:03.665Z,99.99
2019-01-12T11:37:03.645Z,99.99
2019-01-12T11:38:03.639Z,99.99
2019-01-12T11:39:03.612Z,99.99
2019-01-12T11:40:03.348Z,99.99
2019-01-12T11:41:03.583Z,99.99
2019-01-12T11:42:03.316Z,99.99
2019-01-12T11:43:03.555Z,99.99
2019-01-12T11:44:03.530Z,99.99
2019-01-12T11:45:03.516Z,99.99
2019-01-12T11:46:03.498Z,99.99
2019-01-12T11:47:03.484Z,99.99
2019-01-12T11:48:03.471Z,99.99
2019-01-12T11:49:03.457Z,99.99
2019-01-12T11:50:03.437Z,99.99
2019-01-12T11:51:03.416Z,99.99
2019-01-12T11:52:03.399Z,99.99
2019-01-12T11:53:03.599Z,99.99
2019-01-12T11:54:03.367Z,99.99
2019-01-12T11:55:03.427Z,99.99
2019-01-12T11:56:03.335Z,99.99
2019-01-12T11:57:03.335Z,99.99
2019-01-12T11:58:03.326Z,99.99
2019-01-12T11:59:03.335Z,99.99
2019-01-12T12:00:03.025Z,99.99
2019-01-12T12:01:03.292Z,99.99
2019-01-12T12:02:03.239Z,99.99
2019-01-12T12:03:03.235Z,99.99
2019-01-12T12:04:03.257Z,99.99
2019-01-12T12:05:03.195Z,99.99
2019-01-12T12:06:03.175Z,99.99
2019-01-12T12:07:03.156Z,99.99
2019-01-12T12:08:03.136Z,99.99
2019-01-12T12:09:03.128Z,99.99
2019-01-12T12:10:03.135Z,99.99
2019-01-12T12:11:03.086Z,99.99
2019-01-12T12:12:03.079Z,99.99
2019-01-12T12:13:03.069Z,99.99
2019-01-12T12:14:03.037Z,99.99
2019-01-12T12:15:03.065Z,99.99
2019-01-12T12:16:03.958Z,99.99
2019-01-12T12:17:02.740Z,99.99
2019-01-12T12:18:02.975Z,99.99
2019-01-12T12:19:02.955Z,99.99
2019-01-12T12:20:02.962Z,99.99
2019-01-12T12:21:02.923Z,99.99
2019-01-12T12:22:02.660Z,99.99
2019-01-12T12:23:02.643Z,99.99
2019-01-12T12:24:02.869Z,99.99
2019-01-12T12:25:02.854Z,99.99
2019-01-12T12:26:02.839Z,99.99
2019-01-12T12:27:02.842Z,99.99
2019-01-12T12:28:02.560Z,99.99
2019-01-12T12:29:02.790Z,99.99
2019-01-12T12:30:02.542Z,99.99
2019-01-12T12:31:02.754Z,99.99
2019-01-12T12:32:02.740Z,99.99
2019-01-12T12:33:02.729Z,99.99
2019-01-12T12:34:02.710Z,99.99
2019-01-12T12:35:02.716Z,99.99
2019-01-12T12:36:02.676Z,99.99
2019-01-12T12:37:02.660Z,99.99
2019-01-12T12:38:02.643Z,99.99
2019-01-12T12:39:02.377Z,99.99
2019-01-12T12:40:02.368Z,99.99
2019-01-12T12:41:02.615Z,99.99
2019-01-12T12:42:02.576Z,99.99
2019-01-12T12:43:02.562Z,99.99
2019-01-12T12:44:02.548Z,99.99
2019-01-12T12:45:02.384Z,99.99
2019-01-12T12:46:02.511Z,99.99
2019-01-12T12:47:02.494Z,99.99
2019-01-12T12:48:02.484Z,99.99
2019-01-12T12:49:02.462Z,99.99
2019-01-12T12:50:02.536Z,99.99
2019-01-12T12:51:02.425Z,99.99
2019-01-12T12:52:02.410Z,99.99
2019-01-12T12:53:02.395Z,99.99
2019-01-12T12:54:02.378Z,99.99